createdAt,value
2019-02-12T00:01:14.817Z,3.33
2019-02-12T00:03:43.484Z,4.40
2019-02-12T00:06:12.077Z,3.43
2019-02-12T00:08:40.689Z,3.57
2019-02-12T00:11:09.340Z,6.73
2019-02-12T00:13:37.946Z,4.62
2019-02-12T00:16:06.534Z,3.60
2019-02-12T00:18:35.162Z,3.90
2019-02-12T00:21:09.244Z,3.53
2019-02-12T00:23:34.178Z,2.93
2019-02-12T00:26:02.845Z,4.47
2019-02-12T00:28:31.608Z,4.37
2019-02-12T00:31:00.266Z,3.40
2019-02-12T00:33:28.962Z,4.83
2019-02-12T00:35:57.612Z,3.67
2019-02-12T00:38:26.199Z,4.40
2019-02-12T00:40:54.835Z,4.03
2019-02-12T00:43:23.443Z,4.00
2019-02-12T00:45:52.070Z,3.33
2019-02-12T00:48:20.680Z,4.00
2019-02-12T00:50:49.299Z,4.70
2019-02-12T00:53:18.042Z,4.03
2019-02-12T00:55:46.726Z,4.20
2019-02-12T00:58:15.358Z,3.40
2019-02-12T01:00:46.875Z,4.90
2019-02-12T01:03:18.620Z,3.67
2019-02-12T01:05:49.976Z,4.93
2019-02-12T01:08:21.836Z,4.37
2019-02-12T01:10:53.679Z,4.10
2019-02-12T01:13:25.564Z,4.10
2019-02-12T01:15:57.047Z,4.13
2019-02-12T01:18:30.836Z,4.80
2019-02-12T01:21:01.630Z,3.33
2019-02-12T01:23:30.319Z,4.05
2019-02-12T01:25:58.931Z,3.80
2019-02-12T01:28:27.542Z,3.80
2019-02-12T01:30:56.201Z,3.73
2019-02-12T01:33:24.815Z,3.30
2019-02-12T01:35:53.518Z,3.93
2019-02-12T01:38:22.146Z,4.03
2019-02-12T01:40:50.738Z,3.77
2019-02-12T01:43:19.336Z,3.33
2019-02-12T01:45:48.086Z,2.90
2019-02-12T01:48:16.646Z,3.90
2019-02-12T01:50:45.245Z,3.67
2019-02-12T01:53:13.860Z,4.13
2019-02-12T01:55:42.473Z,2.90
2019-02-12T01:58:11.285Z,2.80
2019-02-12T02:00:39.912Z,4.67
2019-02-12T02:03:08.574Z,3.43
2019-02-12T02:05:37.180Z,3.17
2019-02-12T02:08:05.771Z,4.50
2019-02-12T02:10:34.430Z,4.10
2019-02-12T02:13:03.124Z,3.87
2019-02-12T02:15:31.733Z,2.53
2019-02-12T02:18:00.355Z,4.40
2019-02-12T02:20:29.074Z,4.10
2019-02-12T02:22:57.757Z,3.50
2019-02-12T02:25:26.343Z,4.13
2019-02-12T02:27:54.987Z,3.30
2019-02-12T02:30:23.598Z,4.23
2019-02-12T02:32:53.085Z,4.23
2019-02-12T02:35:21.761Z,3.73
2019-02-12T02:37:50.388Z,4.40
2019-02-12T02:40:18.979Z,3.80
2019-02-12T02:42:47.686Z,3.57
2019-02-12T02:45:16.349Z,2.73
2019-02-12T02:47:44.954Z,3.27
2019-02-12T02:50:13.556Z,3.10
2019-02-12T02:52:42.163Z,4.10
2019-02-12T02:55:11.250Z,3.02
2019-02-12T02:57:39.893Z,2.90
2019-02-12T03:00:09.069Z,3.37
2019-02-12T03:02:37.691Z,3.77
2019-02-12T03:05:07.912Z,2.90
2019-02-12T03:07:36.667Z,3.77
2019-02-12T03:10:05.282Z,3.80
2019-02-12T03:12:33.876Z,2.67
2019-02-12T03:15:02.522Z,2.93
2019-02-12T03:17:31.188Z,2.75
2019-02-12T03:19:59.811Z,2.63
2019-02-12T03:22:28.478Z,3.13
2019-02-12T03:24:57.094Z,2.27
2019-02-12T03:27:25.779Z,2.03
2019-02-12T03:29:54.433Z,2.60
2019-02-12T03:32:23.124Z,4.53
2019-02-12T03:34:51.741Z,3.03
2019-02-12T03:37:20.362Z,3.13
2019-02-12T03:39:49.208Z,3.50
2019-02-12T03:42:17.786Z,3.60
2019-02-12T03:44:46.394Z,3.97
2019-02-12T03:47:15.057Z,4.10
2019-02-12T03:49:43.659Z,3.33
2019-02-12T03:52:13.203Z,4.10
2019-02-12T03:54:42.161Z,4.60
2019-02-12T03:57:10.875Z,3.47
2019-02-12T03:59:39.477Z,3.60
2019-02-12T04:02:08.400Z,3.73
2019-02-12T04:04:37.005Z,4.23
2019-02-12T04:07:05.631Z,3.70
2019-02-12T04:09:34.253Z,3.55
2019-02-12T04:12:02.882Z,4.13
2019-02-12T04:14:31.518Z,3.63
2019-02-12T04:17:00.169Z,3.33
2019-02-12T04:19:28.794Z,3.50
2019-02-12T04:21:57.456Z,3.33
2019-02-12T04:24:26.057Z,3.30
2019-02-12T04:26:54.659Z,2.87
2019-02-12T04:29:23.296Z,3.87
2019-02-12T04:31:51.940Z,3.17
2019-02-12T04:34:20.531Z,3.30
2019-02-12T04:36:49.158Z,2.87
2019-02-12T04:39:17.758Z,2.43
2019-02-12T04:41:46.412Z,3.27
2019-02-12T04:44:15.064Z,2.67
2019-02-12T04:46:43.702Z,2.47
2019-02-12T04:49:12.371Z,3.30
2019-02-12T04:51:41.201Z,2.53
2019-02-12T04:54:09.872Z,2.97
2019-02-12T04:56:38.533Z,3.60
2019-02-12T04:59:07.162Z,3.30
2019-02-12T05:01:35.803Z,3.27
2019-02-12T05:04:04.452Z,3.57
2019-02-12T05:06:33.039Z,3.07
2019-02-12T05:09:19.142Z,2.57
2019-02-12T05:11:51.098Z,3.17
2019-02-12T05:14:19.714Z,3.53
2019-02-12T05:16:48.358Z,3.27
2019-02-12T05:19:16.980Z,3.73
2019-02-12T05:21:45.607Z,3.17
2019-02-12T05:24:14.239Z,5.42
2019-02-12T05:26:42.867Z,3.17
2019-02-12T05:29:11.615Z,3.53
2019-02-12T05:31:40.213Z,2.90
2019-02-12T05:34:08.846Z,2.47
2019-02-12T05:36:37.462Z,3.60
2019-02-12T05:39:06.292Z,2.50
2019-02-12T05:41:34.941Z,3.17
2019-02-12T05:44:03.563Z,2.60
2019-02-12T05:46:32.142Z,2.53
2019-02-12T05:49:00.788Z,2.20
2019-02-12T05:51:29.398Z,2.47
2019-02-12T05:53:58.059Z,2.03
2019-02-12T05:56:26.661Z,2.87
2019-02-12T05:58:55.257Z,3.07
2019-02-12T06:01:23.852Z,2.83
2019-02-12T06:03:52.527Z,3.07
2019-02-12T06:06:21.178Z,3.90
2019-02-12T06:08:49.812Z,2.47
2019-02-12T06:11:18.444Z,3.33
2019-02-12T06:13:47.081Z,3.00
2019-02-12T06:16:15.710Z,2.77
2019-02-12T06:18:44.341Z,3.47
2019-02-12T06:21:12.941Z,2.20
2019-02-12T06:23:41.550Z,2.73
2019-02-12T06:26:10.219Z,3.17
2019-02-12T06:28:38.870Z,2.90
2019-02-12T06:31:07.464Z,2.90
2019-02-12T06:33:36.067Z,3.37
2019-02-12T06:36:04.647Z,2.63
2019-02-12T06:38:33.256Z,3.08
2019-02-12T06:41:01.854Z,2.10
2019-02-12T06:43:30.473Z,2.87
2019-02-12T06:45:59.134Z,3.07
2019-02-12T06:48:27.768Z,3.73
2019-02-12T06:50:56.423Z,3.00
2019-02-12T06:53:25.075Z,3.40
2019-02-12T06:55:53.788Z,3.63
2019-02-12T06:58:22.381Z,3.70
2019-02-12T07:00:51.013Z,3.20
2019-02-12T07:03:21.962Z,3.17
2019-02-12T07:06:18.055Z,3.40
2019-02-12T07:09:12.747Z,2.43
2019-02-12T07:12:11.147Z,3.93
2019-02-12T07:15:04.768Z,3.23
2019-02-12T07:18:17.696Z,3.37
2019-02-12T07:21:12.150Z,3.47
2019-02-12T07:24:28.043Z,3.47
2019-02-12T07:27:33.596Z,3.77
2019-02-12T07:30:32.620Z,3.37
2019-02-12T07:33:18.849Z,3.40
2019-02-12T07:36:21.102Z,2.90
2019-02-12T07:39:08.480Z,2.90
2019-02-12T07:42:17.321Z,4.43
2019-02-12T07:45:26.526Z,4.53
2019-02-12T07:48:51.560Z,4.33
2019-02-12T07:52:06.657Z,4.03
2019-02-12T07:55:08.280Z,5.97
2019-02-12T07:58:13.169Z,4.03
2019-02-12T08:01:19.084Z,4.37
2019-02-12T08:04:13.086Z,4.33
2019-02-12T08:07:05.161Z,5.00
2019-02-12T08:10:15.667Z,4.93
2019-02-12T08:13:15.082Z,4.50
2019-02-12T08:16:25.631Z,4.13
2019-02-12T08:19:53.643Z,4.70
2019-02-12T08:22:54.803Z,4.77
2019-02-12T08:25:45.332Z,4.17
2019-02-12T08:28:35.053Z,4.90
2019-02-12T08:31:33.757Z,4.30
2019-02-12T08:34:45.005Z,4.17
2019-02-12T08:37:45.877Z,5.60
2019-02-12T08:40:43.420Z,4.43
2019-02-12T08:43:51.197Z,4.43
2019-02-12T08:46:32.359Z,3.80
2019-02-12T08:49:38.085Z,4.03
2019-02-12T08:53:03.554Z,2.60
2019-02-12T08:56:01.306Z,4.07
2019-02-12T08:59:00.947Z,3.70
2019-02-12T09:01:49.582Z,3.47
2019-02-12T09:04:44.378Z,2.73
2019-02-12T09:07:31.515Z,2.77
2019-02-12T09:10:25.576Z,1.67
2019-02-12T09:13:07.888Z,2.67
2019-02-12T09:16:09.006Z,2.27
2019-02-12T09:18:53.868Z,2.90
2019-02-12T09:22:22.102Z,2.70
2019-02-12T09:24:58.651Z,1.87
2019-02-12T09:27:53.798Z,2.40
2019-02-12T09:30:51.520Z,2.53
2019-02-12T09:34:16.539Z,2.10
2019-02-12T09:37:41.340Z,3.13
2019-02-12T09:40:59.917Z,2.73
2019-02-12T09:43:58.080Z,2.37
2019-02-12T09:47:14.670Z,2.27
2019-02-12T09:50:39.550Z,2.30
2019-02-12T09:53:38.414Z,2.87
2019-02-12T09:56:24.546Z,2.77
2019-02-12T09:59:08.638Z,2.60
2019-02-12T10:01:53.880Z,2.57
2019-02-12T10:05:07.827Z,2.13
2019-02-12T10:07:59.409Z,2.37
2019-02-12T10:10:59.258Z,2.30
2019-02-12T10:14:02.454Z,2.23
2019-02-12T10:17:00.509Z,2.10
2019-02-12T10:19:45.897Z,3.00
2019-02-12T10:22:26.621Z,1.60
2019-02-12T10:25:17.152Z,3.63
2019-02-12T10:28:13.072Z,2.47
2019-02-12T10:31:02.380Z,1.90
2019-02-12T10:33:30.970Z,3.13
2019-02-12T10:35:59.578Z,1.83
2019-02-12T10:38:28.171Z,2.13
2019-02-12T10:40:56.859Z,2.20
2019-02-12T10:43:25.525Z,1.90
2019-02-12T10:45:54.193Z,2.33
2019-02-12T10:48:22.806Z,2.97
2019-02-12T10:50:51.393Z,1.97
2019-02-12T10:53:19.964Z,2.27
2019-02-12T10:55:48.602Z,2.98
2019-02-12T10:58:17.265Z,2.23
2019-02-12T11:00:45.898Z,1.83
2019-02-12T11:03:14.550Z,1.30
2019-02-12T11:05:43.132Z,2.43
2019-02-12T11:08:11.771Z,2.23
2019-02-12T11:10:40.391Z,1.97
2019-02-12T11:13:09.029Z,1.90
2019-02-12T11:15:37.753Z,1.90
2019-02-12T11:18:06.341Z,1.77
2019-02-12T11:20:35.032Z,1.57
2019-02-12T11:23:03.612Z,1.90
2019-02-12T11:25:32.261Z,2.30
2019-02-12T11:28:01.003Z,2.17
2019-02-12T11:30:29.623Z,2.10
2019-02-12T11:32:58.298Z,2.50
2019-02-12T11:35:27.049Z,1.80
2019-02-12T11:37:55.702Z,2.03
2019-02-12T11:40:24.424Z,1.73
2019-02-12T11:42:53.233Z,2.47
2019-02-12T11:45:21.858Z,1.97
2019-02-12T11:47:50.501Z,2.43
2019-02-12T11:50:19.186Z,2.10
2019-02-12T11:52:47.812Z,1.87
2019-02-12T11:55:16.578Z,2.27
2019-02-12T11:57:45.224Z,1.90
2019-02-12T12:00:16.179Z,1.90
2019-02-12T12:02:44.781Z,1.77
2019-02-12T12:05:13.456Z,1.87
2019-02-12T12:07:42.045Z,2.10
2019-02-12T12:10:10.697Z,2.13
2019-02-12T12:12:39.317Z,1.40
2019-02-12T12:15:08.628Z,1.73
2019-02-12T12:17:37.228Z,2.27
2019-02-12T12:20:06.400Z,3.10
2019-02-12T12:22:35.180Z,2.23
2019-02-12T12:25:04.077Z,2.53
2019-02-12T12:27:32.667Z,3.20
2019-02-12T12:30:01.291Z,1.97
2019-02-12T12:32:29.867Z,2.07
2019-02-12T12:34:59.221Z,1.73
2019-02-12T12:37:27.926Z,2.00
2019-02-12T12:39:56.558Z,1.80
2019-02-12T12:42:25.272Z,1.63
2019-02-12T12:44:54.037Z,1.77
2019-02-12T12:47:22.654Z,2.17
2019-02-12T12:49:51.358Z,1.97
2019-02-12T12:52:20.019Z,2.20
2019-02-12T12:54:48.674Z,1.90
2019-02-12T12:57:17.304Z,1.80
2019-02-12T12:59:45.883Z,1.57
2019-02-12T13:02:15.271Z,1.93
2019-02-12T13:04:43.862Z,1.80
2019-02-12T13:07:12.575Z,1.87
2019-02-12T13:09:41.227Z,1.83
2019-02-12T13:12:09.822Z,2.67
2019-02-12T13:14:38.450Z,3.03
2019-02-12T13:17:07.048Z,2.43
2019-02-12T13:19:35.735Z,2.13
2019-02-12T13:22:04.336Z,2.00
2019-02-12T13:24:32.899Z,1.50
2019-02-12T13:27:01.518Z,2.03
2019-02-12T13:29:30.189Z,2.97
2019-02-12T13:31:58.936Z,1.90
2019-02-12T13:34:27.567Z,1.50
2019-02-12T13:36:56.206Z,1.70
2019-02-12T13:39:24.774Z,1.70
2019-02-12T13:41:53.398Z,1.80
2019-02-12T13:44:22.264Z,2.13
2019-02-12T13:46:50.894Z,1.60
2019-02-12T13:49:19.663Z,1.40
2019-02-12T13:51:48.306Z,1.00
2019-02-12T13:54:16.879Z,1.57
2019-02-12T13:56:45.499Z,2.13
2019-02-12T13:59:14.159Z,1.53
2019-02-12T14:01:42.758Z,0.80
2019-02-12T14:04:11.342Z,1.63
2019-02-12T14:06:39.972Z,1.67
2019-02-12T14:09:10.646Z,1.50
2019-02-12T14:11:39.388Z,1.40
2019-02-12T14:14:08.009Z,1.30
2019-02-12T14:16:36.779Z,0.90
2019-02-12T14:19:05.384Z,1.00
2019-02-12T14:21:33.981Z,1.70
2019-02-12T14:24:02.596Z,1.60
2019-02-12T14:26:31.310Z,1.20
2019-02-12T14:28:59.927Z,1.17
2019-02-12T14:31:28.512Z,1.00
2019-02-12T14:33:57.340Z,1.23
2019-02-12T14:36:26.300Z,1.20
2019-02-12T14:38:55.244Z,1.10
2019-02-12T14:41:24.071Z,1.60
2019-02-12T14:43:53.050Z,1.90
2019-02-12T14:46:24.534Z,1.57
2019-02-12T14:48:53.406Z,1.90
2019-02-12T14:51:22.248Z,2.13
2019-02-12T14:53:51.125Z,1.67
2019-02-12T14:56:20.079Z,1.60
2019-02-12T14:58:49.062Z,1.53
2019-02-12T15:01:18.026Z,1.37
2019-02-12T15:03:46.951Z,1.63
2019-02-12T15:06:15.792Z,1.30
2019-02-12T15:08:44.636Z,1.20
2019-02-12T15:11:13.677Z,1.43
2019-02-12T15:13:42.564Z,1.47
2019-02-12T15:16:11.564Z,1.93
2019-02-12T15:18:40.491Z,1.70
2019-02-12T15:21:09.319Z,2.13
2019-02-12T15:23:38.320Z,1.03
2019-02-12T15:26:07.128Z,1.40
2019-02-12T15:28:35.982Z,1.00
2019-02-12T15:31:05.026Z,1.10
2019-02-12T15:33:33.841Z,1.50
2019-02-12T15:36:02.840Z,1.40
2019-02-12T15:38:51.015Z,1.13
2019-02-12T15:41:20.037Z,1.30
2019-02-12T15:43:49.292Z,1.57
2019-02-12T15:46:18.391Z,1.77
2019-02-12T15:48:47.593Z,1.13
2019-02-12T15:51:16.585Z,1.20
2019-02-12T15:53:45.687Z,1.57
2019-02-12T15:56:14.834Z,1.43
2019-02-12T15:58:43.863Z,2.20
2019-02-12T16:01:12.773Z,1.60
2019-02-12T16:03:41.734Z,1.20
2019-02-12T16:06:11.447Z,1.73
2019-02-12T16:08:41.196Z,3.07
2019-02-12T16:11:10.492Z,2.50
2019-02-12T16:13:39.830Z,2.73
2019-02-12T16:16:09.927Z,3.30
2019-02-12T16:18:39.496Z,4.20
2019-02-12T16:21:08.839Z,4.33
2019-02-12T16:23:37.845Z,5.30
2019-02-12T16:26:06.832Z,3.20
2019-02-12T16:28:35.781Z,2.43
2019-02-12T16:31:04.693Z,1.57
2019-02-12T16:33:33.715Z,3.23
2019-02-12T16:36:02.563Z,2.47
2019-02-12T16:38:31.494Z,1.30
2019-02-12T16:41:00.418Z,2.10
2019-02-12T16:43:29.246Z,1.40
2019-02-12T16:46:04.716Z,2.00
2019-02-12T16:48:33.766Z,1.50
2019-02-12T16:51:03.192Z,1.60
2019-02-12T16:53:32.002Z,2.10
2019-02-12T16:56:08.173Z,2.53
2019-02-12T16:58:31.637Z,2.50
2019-02-12T17:01:00.624Z,2.17
2019-02-12T17:03:29.452Z,2.40
2019-02-12T17:05:58.458Z,2.00
2019-02-12T17:08:27.461Z,2.87
2019-02-12T17:10:56.352Z,2.60
2019-02-12T17:13:25.736Z,2.17
2019-02-12T17:15:54.684Z,2.40
2019-02-12T17:18:23.598Z,2.10
2019-02-12T17:20:52.724Z,2.63
2019-02-12T17:23:21.951Z,2.53
2019-02-12T17:25:50.814Z,2.47
2019-02-12T17:28:19.759Z,1.90
2019-02-12T17:30:48.645Z,3.13
2019-02-12T17:33:18.092Z,2.57
2019-02-12T17:35:47.540Z,2.87
2019-02-12T17:38:16.534Z,2.33
2019-02-12T17:40:45.400Z,3.37
2019-02-12T17:43:14.281Z,2.43
2019-02-12T17:45:43.197Z,2.67
2019-02-12T17:48:12.166Z,3.07
2019-02-12T17:50:41.114Z,7.57
2019-02-12T17:53:10.117Z,11.10
2019-02-12T17:55:38.976Z,8.80
2019-02-12T17:58:08.021Z,3.85
2019-02-12T18:00:41.764Z,3.63
2019-02-12T18:03:10.644Z,6.03
2019-02-12T18:05:39.625Z,7.20
2019-02-12T18:08:08.670Z,7.40
2019-02-12T18:10:37.625Z,6.73
2019-02-12T18:13:07.062Z,5.57
2019-02-12T18:15:36.023Z,2.73
2019-02-12T18:18:05.082Z,3.67
2019-02-12T18:20:33.927Z,4.53
2019-02-12T18:23:02.843Z,10.47
2019-02-12T18:25:31.947Z,28.67
2019-02-12T18:28:00.735Z,11.03
2019-02-12T18:30:29.666Z,6.67
2019-02-12T18:32:58.571Z,5.43
2019-02-12T18:35:27.513Z,4.23
2019-02-12T18:37:56.393Z,7.70
2019-02-12T18:40:25.433Z,7.43
2019-02-12T18:42:54.345Z,6.20
2019-02-12T18:45:23.334Z,6.23
2019-02-12T18:47:52.244Z,7.87
2019-02-12T18:50:21.175Z,5.70
2019-02-12T18:52:50.123Z,6.30
2019-02-12T18:55:19.239Z,7.00
2019-02-12T18:57:48.211Z,5.03
2019-02-12T19:00:18.615Z,3.83
2019-02-12T19:02:47.591Z,5.37
2019-02-12T19:05:16.761Z,7.07
2019-02-12T19:07:45.727Z,4.90
2019-02-12T19:10:14.889Z,4.63
2019-02-12T19:12:43.810Z,5.20
2019-02-12T19:15:14.371Z,4.60
2019-02-12T19:17:45.151Z,4.50
2019-02-12T19:20:14.090Z,5.73
2019-02-12T19:22:42.992Z,4.70
2019-02-12T19:25:11.976Z,4.83
2019-02-12T19:27:40.815Z,6.67
2019-02-12T19:30:12.010Z,5.60
2019-02-12T19:32:40.907Z,4.40
2019-02-12T19:35:09.922Z,4.77
2019-02-12T19:37:38.971Z,5.50
2019-02-12T19:40:08.572Z,5.40
2019-02-12T19:42:37.486Z,6.33
2019-02-12T19:45:07.575Z,4.70
2019-02-12T19:47:36.465Z,5.07
2019-02-12T19:50:06.282Z,4.73
2019-02-12T19:52:35.271Z,4.93
2019-02-12T19:55:04.558Z,3.83
2019-02-12T19:57:33.498Z,4.40
2019-02-12T20:00:02.574Z,4.67
2019-02-12T20:02:33.274Z,4.77
2019-02-12T20:05:02.617Z,4.60
2019-02-12T20:07:31.524Z,5.80
2019-02-12T20:10:00.603Z,5.37
2019-02-12T20:12:32.122Z,4.00
2019-02-12T20:15:08.359Z,4.30
2019-02-12T20:17:37.503Z,4.13
2019-02-12T20:20:07.797Z,5.20
2019-02-12T20:22:36.809Z,4.70
2019-02-12T20:25:06.171Z,4.07
2019-02-12T20:27:36.128Z,4.57
2019-02-12T20:30:06.721Z,3.80
2019-02-12T20:32:35.674Z,3.30
2019-02-12T20:35:04.890Z,3.30
2019-02-12T20:37:34.747Z,3.70
2019-02-12T20:40:05.457Z,3.53
2019-02-12T20:42:34.468Z,3.23
2019-02-12T20:45:03.721Z,2.37
2019-02-12T20:47:32.775Z,2.33
2019-02-12T20:50:01.881Z,2.50
2019-02-12T20:52:31.291Z,3.40
2019-02-12T20:55:00.297Z,4.07
2019-02-12T20:57:29.456Z,3.00
2019-02-12T20:59:58.347Z,3.40
2019-02-12T21:02:29.474Z,5.57
2019-02-12T21:04:58.503Z,2.93
2019-02-12T21:07:27.738Z,2.93
2019-02-12T21:09:57.122Z,3.80
2019-02-12T21:12:25.995Z,4.50
2019-02-12T21:14:54.933Z,4.55
2019-02-12T21:17:23.828Z,4.40
2019-02-12T21:19:52.658Z,3.10
2019-02-12T21:22:22.624Z,2.90
2019-02-12T21:24:51.658Z,2.33
2019-02-12T21:27:23.543Z,1.90
2019-02-12T21:29:51.107Z,2.50
2019-02-12T21:32:19.948Z,2.60
2019-02-12T21:34:48.941Z,3.13
2019-02-12T21:37:17.854Z,2.27
2019-02-12T21:39:47.188Z,3.07
2019-02-12T21:42:16.209Z,3.80
2019-02-12T21:44:45.171Z,3.33
2019-02-12T21:47:14.112Z,3.73
2019-02-12T21:49:42.962Z,2.30
2019-02-12T21:52:11.920Z,3.33
2019-02-12T21:54:40.949Z,2.10
2019-02-12T21:57:09.872Z,2.10
2019-02-12T21:59:38.693Z,2.10
2019-02-12T22:02:07.607Z,4.13
2019-02-12T22:04:36.555Z,3.63
2019-02-12T22:07:05.545Z,4.83
2019-02-12T22:09:34.461Z,5.77
2019-02-12T22:12:03.287Z,3.17
2019-02-12T22:14:32.486Z,4.10
2019-02-12T22:17:01.502Z,4.50
2019-02-12T22:19:30.287Z,3.97
2019-02-12T22:21:59.266Z,3.67
2019-02-12T22:24:28.209Z,4.53
2019-02-12T22:26:57.157Z,4.10
2019-02-12T22:29:26.034Z,5.70
2019-02-12T22:31:54.924Z,6.47
2019-02-12T22:34:23.780Z,4.33
2019-02-12T22:36:52.657Z,4.00
2019-02-12T22:39:22.090Z,3.17
2019-02-12T22:41:50.989Z,2.87
2019-02-12T22:44:19.964Z,3.70
2019-02-12T22:46:48.955Z,3.90
2019-02-12T22:49:18.150Z,2.37
2019-02-12T22:51:47.065Z,2.67
2019-02-12T22:54:15.973Z,4.17
2019-02-12T22:56:44.828Z,3.27
2019-02-12T22:59:13.682Z,5.07
2019-02-12T23:01:42.848Z,4.23
2019-02-12T23:04:11.732Z,4.30
2019-02-12T23:06:40.718Z,4.50
2019-02-12T23:09:18.293Z,5.10
2019-02-12T23:11:47.225Z,5.20
2019-02-12T23:14:16.205Z,5.37
2019-02-12T23:16:45.151Z,4.07
2019-02-12T23:19:14.148Z,4.85
2019-02-12T23:21:43.014Z,5.30
2019-02-12T23:24:11.998Z,3.83
2019-02-12T23:26:40.973Z,4.37
2019-02-12T23:29:10.029Z,3.80
2019-02-12T23:31:38.826Z,7.13
2019-02-12T23:34:07.846Z,4.70
2019-02-12T23:36:36.711Z,5.77
2019-02-12T23:39:06.385Z,3.97
2019-02-12T23:41:35.542Z,4.10
2019-02-12T23:44:04.425Z,3.83
2019-02-12T23:46:33.325Z,4.40
2019-02-12T23:49:02.250Z,5.47
2019-02-12T23:51:31.083Z,4.70
2019-02-12T23:53:59.895Z,4.77
2019-02-12T23:56:28.923Z,4.53
2019-02-12T23:58:57.975Z,3.87
